NTBM930 KCLE-KPIT
Flight info
| Callsign | NTBM930 |
|---|---|
| Flight time | 0h 30m |
| Altitude | 11500 |
| Route | 1G3 |
| Aircraft | TBM9/L-V/N |
Departure
| Time | 2026-05-05 02:15 |
|---|---|
| Airport | Cleveland Hopkins International Airport (KCLE) |
Arrival
| Time | 2026-05-05 02:45 |
|---|---|
| Airport | Pittsburgh International Airport (KPIT) |
| Time | Latitude | Longitude | Altitude | Speed | Heading |
|---|---|---|---|---|---|
| 2026-05-05 01:51 | 41.41122 | -81.84179 | 789 ft | 0 kts | 54° |
| 2026-05-05 02:05 | 41.41122 | -81.84178 | 770 ft | 0 kts | 58° |
| 2026-05-05 02:07 | 41.41122 | -81.84177 | 789 ft | 3 kts | 71° |
| 2026-05-05 02:08 | 41.41104 | -81.84211 | 789 ft | 8 kts | 269° |
| 2026-05-05 02:08 | 41.41100 | -81.84296 | 789 ft | 10 kts | 264° |
| 2026-05-05 02:08 | 41.41121 | -81.84376 | 789 ft | 11 kts | 350° |
| 2026-05-05 02:08 | 41.41189 | -81.84382 | 788 ft | 11 kts | 358° |
| 2026-05-05 02:09 | 41.41260 | -81.84356 | 787 ft | 9 kts | 102° |
| 2026-05-05 02:09 | 41.41271 | -81.84279 | 789 ft | 9 kts | 52° |
| 2026-05-05 02:09 | 41.41315 | -81.84209 | 788 ft | 11 kts | 50° |
| 2026-05-05 02:09 | 41.41371 | -81.84123 | 789 ft | 12 kts | 42° |
| 2026-05-05 02:10 | 41.41422 | -81.84103 | 790 ft | 9 kts | 335° |
| 2026-05-05 02:10 | 41.41446 | -81.84127 | 789 ft | 0 kts | 320° |
| 2026-05-05 02:13 | 41.41447 | -81.84128 | 789 ft | 1 kts | 320° |
| 2026-05-05 02:14 | 41.41488 | -81.84274 | 786 ft | 29 kts | 239° |
| 2026-05-05 02:14 | 41.41300 | -81.84576 | 786 ft | 70 kts | 231° |
| 2026-05-05 02:14 | 41.40880 | -81.85291 | 929 ft | 116 kts | 231° |
| 2026-05-05 02:14 | 41.40436 | -81.86220 | 1351 ft | 128 kts | 234° |
| 2026-05-05 02:15 | 41.39935 | -81.87344 | 1633 ft | 146 kts | 237° |
| 2026-05-05 02:15 | 41.39301 | -81.88164 | 2643 ft | 117 kts | 212° |
| 2026-05-05 02:15 | 41.38461 | -81.88258 | 3191 ft | 136 kts | 187° |
| 2026-05-05 02:15 | 41.37438 | -81.87873 | 3466 ft | 164 kts | 172° |
| 2026-05-05 02:16 | 41.36493 | -81.87006 | 4139 ft | 168 kts | 150° |
| 2026-05-05 02:16 | 41.35661 | -81.85810 | 4399 ft | 187 kts | 145° |
| 2026-05-05 02:16 | 41.35022 | -81.84208 | 4798 ft | 209 kts | 112° |
| 2026-05-05 02:16 | 41.34881 | -81.82210 | 5158 ft | 217 kts | 100° |
| 2026-05-05 02:17 | 41.34750 | -81.80218 | 5570 ft | 219 kts | 103° |
| 2026-05-05 02:17 | 41.34559 | -81.78078 | 5375 ft | 253 kts | 102° |
| 2026-05-05 02:17 | 41.34398 | -81.75636 | 5233 ft | 274 kts | 98° |
| 2026-05-05 02:17 | 41.34360 | -81.73127 | 5521 ft | 272 kts | 95° |
| 2026-05-05 02:18 | 41.34353 | -81.70570 | 5403 ft | 278 kts | 96° |
| 2026-05-05 02:18 | 41.34131 | -81.68092 | 5526 ft | 263 kts | 110° |
| 2026-05-05 02:18 | 41.33554 | -81.65787 | 5424 ft | 263 kts | 120° |
| 2026-05-05 02:18 | 41.32721 | -81.63652 | 5342 ft | 259 kts | 131° |
| 2026-05-05 02:19 | 41.31687 | -81.61719 | 5291 ft | 254 kts | 137° |
| 2026-05-05 02:19 | 41.30613 | -81.59886 | 5298 ft | 249 kts | 138° |
| 2026-05-05 02:19 | 41.29557 | -81.58085 | 5339 ft | 246 kts | 138° |
| 2026-05-05 02:19 | 41.28537 | -81.56302 | 5507 ft | 241 kts | 137° |
| 2026-05-05 02:20 | 41.27516 | -81.54513 | 5544 ft | 244 kts | 137° |
| 2026-05-05 02:20 | 41.26482 | -81.52714 | 5553 ft | 247 kts | 137° |
| 2026-05-05 02:20 | 41.25432 | -81.50891 | 5556 ft | 250 kts | 137° |
| 2026-05-05 02:20 | 41.24374 | -81.49060 | 5558 ft | 249 kts | 137° |
| 2026-05-05 02:21 | 41.23330 | -81.47253 | 5561 ft | 249 kts | 137° |
| 2026-05-05 02:21 | 41.22273 | -81.45427 | 5568 ft | 249 kts | 137° |
| 2026-05-05 02:21 | 41.21210 | -81.43615 | 5575 ft | 247 kts | 139° |
| 2026-05-05 02:21 | 41.20152 | -81.41801 | 5500 ft | 252 kts | 132° |
| 2026-05-05 02:22 | 41.19274 | -81.39771 | 5463 ft | 256 kts | 122° |
| 2026-05-05 02:22 | 41.18538 | -81.37627 | 5412 ft | 256 kts | 122° |
| 2026-05-05 02:22 | 41.17755 | -81.35553 | 5534 ft | 243 kts | 129° |
| 2026-05-05 02:22 | 41.16891 | -81.33608 | 5406 ft | 249 kts | 133° |
| 2026-05-05 02:23 | 41.15961 | -81.31653 | 5432 ft | 244 kts | 130° |
| 2026-05-05 02:23 | 41.15059 | -81.29769 | 5571 ft | 242 kts | 132° |
| 2026-05-05 02:23 | 41.14111 | -81.27923 | 5577 ft | 242 kts | 135° |
| 2026-05-05 02:23 | 41.13112 | -81.26119 | 5579 ft | 243 kts | 136° |
| 2026-05-05 02:24 | 41.12097 | -81.24324 | 5579 ft | 244 kts | 136° |
| 2026-05-05 02:24 | 41.11074 | -81.22531 | 5579 ft | 244 kts | 136° |
| 2026-05-05 02:24 | 41.10048 | -81.20737 | 5575 ft | 245 kts | 136° |
| 2026-05-05 02:24 | 41.09020 | -81.18944 | 5575 ft | 244 kts | 136° |
| 2026-05-05 02:25 | 41.07992 | -81.17154 | 5573 ft | 244 kts | 136° |
| 2026-05-05 02:25 | 41.06960 | -81.15351 | 5573 ft | 245 kts | 136° |
| 2026-05-05 02:25 | 41.05931 | -81.13556 | 5571 ft | 245 kts | 136° |
| 2026-05-05 02:25 | 41.04917 | -81.11784 | 5568 ft | 244 kts | 136° |
| 2026-05-05 02:26 | 41.03895 | -81.09995 | 5570 ft | 244 kts | 136° |
| 2026-05-05 02:26 | 41.02870 | -81.08198 | 5568 ft | 244 kts | 136° |
| 2026-05-05 02:26 | 41.01848 | -81.06399 | 5568 ft | 244 kts | 136° |
| 2026-05-05 02:26 | 41.00823 | -81.04599 | 5567 ft | 245 kts | 136° |
| 2026-05-05 02:27 | 40.99795 | -81.02805 | 5568 ft | 245 kts | 136° |
| 2026-05-05 02:27 | 40.98763 | -81.01009 | 5569 ft | 245 kts | 136° |
| 2026-05-05 02:27 | 40.97728 | -80.99208 | 5567 ft | 247 kts | 136° |
| 2026-05-05 02:27 | 40.96688 | -80.97395 | 5574 ft | 248 kts | 136° |
| 2026-05-05 02:28 | 40.95636 | -80.95566 | 5483 ft | 252 kts | 136° |
| 2026-05-05 02:28 | 40.94581 | -80.93728 | 5460 ft | 249 kts | 136° |
| 2026-05-05 02:28 | 40.93535 | -80.91902 | 5456 ft | 248 kts | 136° |
| 2026-05-05 02:28 | 40.92493 | -80.90093 | 5458 ft | 247 kts | 136° |
| 2026-05-05 02:29 | 40.91459 | -80.88289 | 5457 ft | 246 kts | 136° |
| 2026-05-05 02:29 | 40.90427 | -80.86487 | 5456 ft | 246 kts | 136° |
| 2026-05-05 02:29 | 40.89389 | -80.84685 | 5456 ft | 247 kts | 136° |
| 2026-05-05 02:29 | 40.88350 | -80.82885 | 5456 ft | 246 kts | 136° |
| 2026-05-05 02:30 | 40.87316 | -80.81092 | 5460 ft | 246 kts | 136° |
| 2026-05-05 02:30 | 40.86282 | -80.79290 | 5455 ft | 246 kts | 136° |
| 2026-05-05 02:30 | 40.85268 | -80.77511 | 5468 ft | 245 kts | 136° |
| 2026-05-05 02:30 | 40.84244 | -80.75715 | 5467 ft | 245 kts | 136° |
| 2026-05-05 02:31 | 40.83215 | -80.73915 | 5474 ft | 245 kts | 136° |
| 2026-05-05 02:31 | 40.82186 | -80.72117 | 5473 ft | 242 kts | 136° |
| 2026-05-05 02:31 | 40.81233 | -80.70430 | 5475 ft | 220 kts | 136° |
| 2026-05-05 02:31 | 40.80321 | -80.68812 | 5253 ft | 222 kts | 137° |
| 2026-05-05 02:32 | 40.79336 | -80.67209 | 4829 ft | 225 kts | 141° |
| 2026-05-05 02:32 | 40.78321 | -80.65652 | 4524 ft | 220 kts | 141° |
| 2026-05-05 02:32 | 40.77337 | -80.64135 | 4267 ft | 215 kts | 142° |
| 2026-05-05 02:32 | 40.76377 | -80.62652 | 4023 ft | 210 kts | 143° |
| 2026-05-05 02:33 | 40.75435 | -80.61194 | 3762 ft | 207 kts | 142° |
| 2026-05-05 02:33 | 40.74526 | -80.59780 | 3717 ft | 196 kts | 142° |
| 2026-05-05 02:33 | 40.73657 | -80.58422 | 3545 ft | 192 kts | 145° |
| 2026-05-05 02:33 | 40.72834 | -80.57179 | 3953 ft | 170 kts | 142° |
| 2026-05-05 02:34 | 40.72104 | -80.56061 | 4353 ft | 158 kts | 147° |
| 2026-05-05 02:34 | 40.71314 | -80.55006 | 4592 ft | 165 kts | 150° |
| 2026-05-05 02:34 | 40.70469 | -80.53952 | 4706 ft | 172 kts | 152° |
| 2026-05-05 02:34 | 40.69647 | -80.52716 | 4678 ft | 190 kts | 135° |
| 2026-05-05 02:35 | 40.69097 | -80.51026 | 4685 ft | 206 kts | 115° |
| 2026-05-05 02:35 | 40.68710 | -80.49246 | 4829 ft | 207 kts | 115° |
| 2026-05-05 02:35 | 40.68297 | -80.47361 | 4714 ft | 216 kts | 115° |
| 2026-05-05 02:35 | 40.67869 | -80.45455 | 4714 ft | 215 kts | 118° |
| 2026-05-05 02:36 | 40.67370 | -80.43577 | 4529 ft | 222 kts | 118° |
| 2026-05-05 02:36 | 40.66879 | -80.41657 | 4517 ft | 221 kts | 120° |
| 2026-05-05 02:36 | 40.66335 | -80.39826 | 4631 ft | 209 kts | 121° |
| 2026-05-05 02:36 | 40.65807 | -80.38024 | 4561 ft | 215 kts | 121° |
| 2026-05-05 02:37 | 40.65267 | -80.36207 | 4564 ft | 215 kts | 122° |
| 2026-05-05 02:37 | 40.64731 | -80.34356 | 4440 ft | 218 kts | 121° |
| 2026-05-05 02:37 | 40.64150 | -80.32535 | 4325 ft | 211 kts | 124° |
| 2026-05-05 02:37 | 40.63376 | -80.31068 | 4084 ft | 186 kts | 149° |
| 2026-05-05 02:38 | 40.62448 | -80.29990 | 3879 ft | 169 kts | 151° |
| 2026-05-05 02:38 | 40.61578 | -80.28971 | 3675 ft | 158 kts | 162° |
| 2026-05-05 02:38 | 40.60642 | -80.28273 | 3733 ft | 156 kts | 166° |
| 2026-05-05 02:38 | 40.59672 | -80.27622 | 3794 ft | 152 kts | 170° |
| 2026-05-05 02:39 | 40.58668 | -80.27042 | 3648 ft | 158 kts | 171° |
| 2026-05-05 02:39 | 40.57658 | -80.26519 | 3585 ft | 156 kts | 171° |
| 2026-05-05 02:39 | 40.56682 | -80.25996 | 3464 ft | 155 kts | 172° |
| 2026-05-05 02:39 | 40.55731 | -80.25510 | 3691 ft | 145 kts | 175° |
| 2026-05-05 02:40 | 40.54761 | -80.25058 | 3623 ft | 148 kts | 177° |
| 2026-05-05 02:40 | 40.53775 | -80.24636 | 3668 ft | 154 kts | 168° |
| 2026-05-05 02:40 | 40.52935 | -80.23642 | 3788 ft | 178 kts | 136° |
| 2026-05-05 02:40 | 40.52455 | -80.22030 | 3785 ft | 195 kts | 110° |
| 2026-05-05 02:41 | 40.52451 | -80.20194 | 3669 ft | 203 kts | 93° |
| 2026-05-05 02:41 | 40.52534 | -80.18439 | 3502 ft | 186 kts | 96° |
| 2026-05-05 02:41 | 40.52557 | -80.17338 | 3479 ft | 167 kts | 106° |
| 2026-05-05 02:41 | 40.52249 | -80.16097 | 3487 ft | 126 kts | 142° |
| 2026-05-05 02:42 | 40.51452 | -80.15325 | 3244 ft | 92 kts | 187° |
| 2026-05-05 02:42 | 40.50981 | -80.15350 | 3042 ft | 52 kts | 218° |
| 2026-05-05 02:42 | 40.50791 | -80.15525 | 2833 ft | 50 kts | 230° |
| 2026-05-05 02:42 | 40.50619 | -80.16018 | 2310 ft | 72 kts | 242° |
| 2026-05-05 02:43 | 40.50509 | -80.16625 | 2282 ft | 56 kts | 243° |
| 2026-05-05 02:43 | 40.50457 | -80.17159 | 2041 ft | 67 kts | 252° |
| 2026-05-05 02:43 | 40.50288 | -80.17788 | 1893 ft | 79 kts | 243° |
| 2026-05-05 02:43 | 40.50127 | -80.18565 | 1713 ft | 97 kts | 256° |
| 2026-05-05 02:44 | 40.50069 | -80.19434 | 1762 ft | 90 kts | 261° |
| 2026-05-05 02:44 | 40.50121 | -80.20184 | 1851 ft | 82 kts | 265° |
| 2026-05-05 02:44 | 40.50066 | -80.20984 | 1717 ft | 92 kts | 260° |
| 2026-05-05 02:44 | 40.50093 | -80.21812 | 1473 ft | 94 kts | 266° |
| 2026-05-05 02:45 | 40.50117 | -80.22666 | 1328 ft | 91 kts | 268° |
| 2026-05-05 02:45 | 40.50136 | -80.23471 | 1187 ft | 84 kts | 266° |
| 2026-05-05 02:45 | 40.50144 | -80.24115 | 1186 ft | 57 kts | 274° |
| 2026-05-05 02:45 | 40.50159 | -80.24430 | 1191 ft | 11 kts | 275° |
| 2026-05-05 02:46 | 40.50163 | -80.24613 | 1191 ft | 27 kts | 261° |
| 2026-05-05 02:46 | 40.50093 | -80.24646 | 1191 ft | 18 kts | 131° |
| 2026-05-05 02:46 | 40.50070 | -80.24600 | 1191 ft | 0 kts | 113° |
| 2026-05-05 02:47 | 40.50068 | -80.24588 | 1190 ft | 8 kts | 101° |
| 2026-05-05 02:47 | 40.50044 | -80.24454 | 1190 ft | 18 kts | 142° |
| 2026-05-05 02:47 | 40.49928 | -80.24449 | 1186 ft | 18 kts | 201° |
| 2026-05-05 02:48 | 40.49826 | -80.24385 | 1177 ft | 16 kts | 131° |
| 2026-05-05 02:48 | 40.49811 | -80.24365 | 1179 ft | 0 kts | 136° |